首页
METAR-TAF:

METAR-TAF

机场 :

堪薩斯城, 密蘇里州, 美国

纬度: 39-17-50N, 经度: 094-43-50W, 海拔: 312米

当前天气观测

该预报发布于37分钟前的14:53 UTC
静风
温度 25°C
湿度 83%
气压 1016 hPa
能見度: 16.1公里
散云层高于13000英尺
多云层高于25000英尺

METAR: KMCI 161453Z 00000KT 10SM SCT130 BKN250 25/22 A2999 RMK AO2 SLP146 T02500222 50013 $

时间: 10:30 (15:30 UTC)

预报

该预报发布于4小时和10分钟前的11:20 UTC
预报有效从16日的 12点(UTC)到 17日的 12点(UTC)
风速5节,风向西转西北
能見度: 10公里
散云层高于15000英尺
短暂存在
从 16日的 12点(UTC)到 16日的 13点(UTC)
能見度: 8.0公里
轻雾
从 16日的 2300点(UTC)
风速6节,风向西北
能見度: 10公里
多云层高于4000英尺, 积雨云.
附近有雷暴
从 17日的 0800点(UTC)
风速3节,风向北转西北
能見度: 10公里
多云层高于8000英尺

TAF: KMCI 161120Z 1612/1712 29005KT P6SM SCT150 TEMPO 1612/1613 5SM BR FM162300 32006KT P6SM VCTS BKN040CB FM170800 34003KT P6SM BKN080

超过4000个机场的气象观测和天气预报(METAR&TAF报告)。

可查询的气象台以黄色和红色小点在地图上表示。

将鼠标移到小点上方,可查看气象台名称。

然后点击查看天气观测和预报。

如需切换地图:点击带黑十字的绿色按钮放大地图;点击带横线的绿色按钮缩小地图;或者点击绿色箭头查看邻近地区的地图。


METAR-TAF: